Time;durP1;ratioP1;P1;durP2;ratioP2;P2;SDS_P1;SDS_P2;PMS_P1;PMS_P2;Temp;Humidity;BMP_temperature;BMP_pressure;BME280_temperature;BME280_humidity;BME280_pressure;Samples;Min_cycle;Max_cycle;Signal;HPM_P1;HPM_P2
2024/03/09 00:04:55;;;;;;;41.15;25.90;;;;;;;4.70;100.00;100391.22;10534237;28;20501;-70
2024/03/09 00:09:56;;;;;;;36.95;26.73;;;;;;;4.74;100.00;100385.31;10534375;28;20072;-69
2024/03/09 00:14:56;;;;;;;38.38;25.63;;;;;;;4.72;100.00;100387.31;10533541;28;20044;-69
2024/03/09 00:20:00;;;;;;;29.10;21.95;;;;;;;4.69;100.00;100386.84;10536971;28;20269;-70
2024/03/09 00:25:01;;;;;;;42.15;27.08;;;;;;;4.58;100.00;100377.31;10542005;28;20494;-69
2024/03/09 00:30:02;;;;;;;45.92;28.40;;;;;;;4.50;100.00;100377.31;10523272;28;20117;-70
2024/03/09 00:35:04;;;;;;;42.65;26.92;;;;;;;4.27;100.00;100379.88;10522997;28;20601;-68
2024/03/09 00:40:08;;;;;;;36.92;24.60;;;;;;;4.14;100.00;100354.44;10541342;28;20039;-69
2024/03/09 00:45:09;;;;;;;48.35;30.23;;;;;;;4.10;100.00;100377.22;10506949;28;20028;-69
2024/03/09 00:50:11;;;;;;;45.55;26.75;;;;;;;4.04;100.00;100369.00;10541349;28;20032;-68
2024/03/09 00:55:14;;;;;;;46.20;28.02;;;;;;;3.95;100.00;100354.78;10541225;28;20032;-68
2024/03/09 01:00:15;;;;;;;47.00;28.92;;;;;;;3.91;100.00;100353.44;10540503;28;20063;-69
2024/03/09 01:05:19;;;;;;;41.88;29.73;;;;;;;3.84;100.00;100347.94;10540812;28;20051;-71
2024/03/09 01:10:20;;;;;;;47.20;27.58;;;;;;;3.76;100.00;100339.88;10522233;28;20036;-70
2024/03/09 01:15:20;;;;;;;47.60;30.73;;;;;;;3.78;100.00;100326.34;10504927;28;20115;-69
2024/03/09 01:20:21;;;;;;;49.28;28.88;;;;;;;3.71;100.00;100331.53;10521046;28;20499;-69
2024/03/09 01:25:21;;;;;;;50.85;31.48;;;;;;;3.67;100.00;100322.13;10538390;28;20593;-68
2024/03/09 01:30:22;;;;;;;45.30;27.30;;;;;;;3.64;100.00;100317.13;10519822;28;20043;-68
2024/03/09 01:35:23;;;;;;;40.13;27.63;;;;;;;3.66;100.00;100323.16;10538601;28;20531;-69
2024/03/09 01:40:24;;;;;;;48.63;30.65;;;;;;;3.59;100.00;100314.94;10519117;28;20032;-70
2024/03/09 01:45:24;;;;;;;42.15;28.58;;;;;;;3.56;100.00;100301.06;10503934;28;20107;-69
2024/03/09 01:50:25;;;;;;;48.28;30.75;;;;;;;3.56;100.00;100306.41;10538349;28;20115;-69
2024/03/09 01:55:29;;;;;;;56.85;30.90;;;;;;;3.53;100.00;100304.06;10537589;28;20458;-69
2024/03/09 02:00:29;;;;;;;41.50;28.58;;;;;;;3.56;100.00;100280.47;10503823;28;20052;-69
2024/03/09 02:05:30;;;;;;;48.85;29.40;;;;;;;3.53;100.00;100280.81;10519512;28;20211;-68
2024/03/09 02:10:31;;;;;;;40.50;25.50;;;;;;;3.58;100.00;100275.81;10518050;28;20066;-68
2024/03/09 02:15:33;;;;;;;49.05;31.65;;;;;;;3.62;100.00;100263.75;10537898;28;20368;-69
2024/03/09 02:20:37;;;;;;;45.45;30.00;;;;;;;3.57;100.00;100262.56;10537477;28;20043;-68
2024/03/09 02:25:39;;;;;;;39.00;27.45;;;;;;;3.57;100.00;100259.88;10536983;28;20032;-68
2024/03/09 02:30:43;;;;;;;55.55;30.58;;;;;;;3.55;100.00;100241.34;10518859;28;20028;-69
2024/03/09 02:35:43;;;;;;;38.67;29.40;;;;;;;3.58;100.00;100234.81;10538234;28;20625;-68
2024/03/09 02:40:44;;;;;;;43.25;28.30;;;;;;;3.62;100.00;100230.78;10517510;28;20078;-70
2024/03/09 02:45:44;;;;;;;42.63;27.38;;;;;;;3.66;100.00;100216.88;10517880;28;20622;-68
2024/03/09 02:50:45;;;;;;;42.47;26.98;;;;;;;3.88;100.00;100222.53;10535954;28;20395;-69
2024/03/09 02:55:46;;;;;;;47.13;32.25;;;;;;;3.99;100.00;100213.28;10517546;28;20479;-69
2024/03/09 03:00:46;;;;;;;43.30;27.88;;;;;;;4.02;100.00;100215.63;10517377;28;20075;-69
2024/03/09 03:05:48;;;;;;;37.03;27.17;;;;;;;4.05;100.00;100221.50;10500851;28;20194;-68
2024/03/09 03:10:48;;;;;;;44.90;27.63;;;;;;;4.13;100.00;100224.16;10535130;28;20119;-69
2024/03/09 03:15:49;;;;;;;50.65;30.45;;;;;;;4.23;100.00;100229.31;10535941;28;20119;-68
2024/03/09 03:20:49;;;;;;;39.33;26.88;;;;;;;4.31;100.00;100221.25;10502685;28;20032;-69
2024/03/09 03:25:50;;;;;;;33.03;24.17;;;;;;;4.39;100.00;100221.19;10518301;28;20543;-70
2024/03/09 03:30:51;;;;;;;37.75;26.65;;;;;;;4.43;100.00;100208.28;10519302;28;20111;-68
2024/03/09 03:35:51;;;;;;;41.05;26.67;;;;;;;4.55;100.00;100206.88;10518753;28;20024;-69
2024/03/09 03:40:52;;;;;;;42.03;28.40;;;;;;;4.64;100.00;100205.84;10535879;28;20123;-69
2024/03/09 03:45:52;;;;;;;40.15;26.95;;;;;;;4.68;100.00;100210.84;10516471;28;20159;-67
2024/03/09 03:50:53;;;;;;;39.25;28.65;;;;;;;4.66;100.00;100208.34;10516760;28;20078;-69
2024/03/09 03:55:53;;;;;;;37.45;27.00;;;;;;;4.60;100.00;100182.25;10541086;28;20601;-67
2024/03/09 04:00:54;;;;;;;48.35;29.95;;;;;;;4.60;100.00;100184.91;10523985;28;20055;-69
2024/03/09 04:05:54;;;;;;;31.25;21.27;;;;;;;4.59;100.00;100185.91;10542232;28;20044;-69
2024/03/09 04:10:55;;;;;;;40.17;27.58;;;;;;;4.42;100.00;100180.63;10522894;28;20044;-70
2024/03/09 04:15:55;;;;;;;37.45;26.67;;;;;;;4.47;100.00;100188.16;10506965;28;20039;-68
2024/03/09 04:20:56;;;;;;;40.88;22.90;;;;;;;4.53;100.00;100182.13;10541808;28;20123;-69
2024/03/09 04:25:57;;;;;;;40.83;26.30;;;;;;;4.49;100.00;100178.09;10523782;28;20032;-70
2024/03/09 04:30:57;;;;;;;44.95;27.48;;;;;;;4.49;100.00;100177.25;10523295;28;20541;-72
2024/03/09 04:35:58;;;;;;;51.00;28.92;;;;;;;4.49;100.00;100178.09;10523298;28;20096;-69
2024/03/09 04:40:58;;;;;;;41.22;27.42;;;;;;;4.55;100.00;100168.50;10540454;28;20440;-69
2024/03/09 04:46:00;;;;;;;44.97;27.50;;;;;;;4.49;100.00;100155.81;10542332;28;20089;-68
2024/03/09 04:51:00;;;;;;;47.08;26.77;;;;;;;4.45;100.00;100171.41;10523483;28;20032;-69
2024/03/09 04:56:01;;;;;;;33.17;23.30;;;;;;;4.48;100.00;100154.16;10539901;28;20043;-68
2024/03/09 05:01:01;;;;;;;38.05;25.58;;;;;;;4.47;100.00;100147.09;10521384;28;20052;-69
2024/03/09 05:06:02;;;;;;;38.35;24.67;;;;;;;4.50;100.00;100138.69;10538789;28;20061;-68
2024/03/09 05:11:02;;;;;;;35.50;23.65;;;;;;;4.52;100.00;100140.19;10520501;28;20051;-69
2024/03/09 05:16:03;;;;;;;36.33;27.33;;;;;;;4.56;100.00;100146.03;10521084;28;20391;-68
2024/03/09 05:21:04;;;;;;;39.80;27.45;;;;;;;4.51;100.00;100127.00;10539045;28;20425;-68
2024/03/09 05:26:05;;;;;;;42.42;25.55;;;;;;;4.53;100.00;100133.00;10504102;28;20028;-68
2024/03/09 05:31:26;;;;;;;27.38;23.63;;;;;;;4.52;100.00;100126.78;10520612;28;20032;-68
2024/03/09 05:36:27;;;;;;;31.77;23.70;;;;;;;4.48;100.00;100130.84;10520874;28;20036;-69
2024/03/09 05:41:27;;;;;;;34.75;24.02;;;;;;;4.41;100.00;100109.28;10519890;28;20036;-69
2024/03/09 05:46:28;;;;;;;31.88;23.98;;;;;;;4.51;100.00;100127.81;10538681;28;20136;-67
2024/03/09 05:51:31;;;;;;;48.70;27.60;;;;;;;4.47;100.00;100131.88;10521076;28;20590;-69
2024/03/09 05:56:31;;;;;;;28.58;22.83;;;;;;;4.49;100.00;100116.44;10521958;28;20032;-69
2024/03/09 06:01:31;;;;;;;32.42;24.38;;;;;;;4.53;100.00;100125.81;10538837;28;20056;-69
2024/03/09 06:06:34;;;;;;;35.25;26.25;;;;;;;4.54;100.00;100119.41;10519893;28;20120;-68
2024/03/09 06:11:35;;;;;;;39.47;25.40;;;;;;;4.51;100.00;100127.00;10518752;28;20028;-68
2024/03/09 06:16:35;;;;;;;36.22;25.88;;;;;;;4.49;100.00;100127.16;10519114;28;20468;-69
2024/03/09 06:21:35;;;;;;;37.28;26.30;;;;;;;4.47;100.00;100110.44;10518836;28;20059;-70
2024/03/09 06:26:36;;;;;;;39.50;26.50;;;;;;;4.57;100.00;100124.44;10536569;28;20117;-69
2024/03/09 06:31:37;;;;;;;39.47;25.10;;;;;;;4.61;100.00;100122.22;10501304;28;20101;-68
2024/03/09 06:36:38;;;;;;;39.50;24.13;;;;;;;4.59;100.00;100132.28;10517184;28;20492;-70
2024/03/09 06:41:40;;;;;;;55.20;29.20;;;;;;;4.61;100.00;100122.22;10516456;28;20055;-71
2024/03/09 06:46:40;;;;;;;39.67;26.55;;;;;;;4.58;100.00;100115.38;10517139;28;20036;-69
2024/03/09 06:51:41;;;;;;;41.63;29.38;;;;;;;4.54;100.00;100111.38;10535061;28;20382;-70
2024/03/09 06:56:41;;;;;;;37.17;24.42;;;;;;;4.54;100.00;100123.94;10516752;28;20177;-69
2024/03/09 07:01:42;;;;;;;39.47;24.10;;;;;;;4.48;100.00;100130.84;10534676;28;20095;-70
2024/03/09 07:06:42;;;;;;;39.47;27.00;;;;;;;4.43;100.00;100128.72;10533826;28;20408;-69
2024/03/09 07:11:42;;;;;;;43.40;25.02;;;;;;;4.53;100.00;100122.25;10514948;28;20514;-69
2024/03/09 07:16:45;;;;;;;36.75;23.73;;;;;;;4.60;100.00;100117.88;10534261;28;20137;-69
2024/03/09 07:21:45;;;;;;;44.42;27.23;;;;;;;4.66;100.00;100117.19;10516616;28;20050;-69
2024/03/09 07:26:48;;;;;;;34.35;24.27;;;;;;;4.78;100.00;100107.66;10533246;28;20127;-69
2024/03/09 07:31:49;;;;;;;39.22;24.70;;;;;;;4.97;100.00;100129.66;10542076;28;20031;-70
2024/03/09 07:36:49;;;;;;;34.58;23.10;;;;;;;5.02;100.00;100112.03;10542694;28;20093;-71
2024/03/09 07:41:50;;;;;;;35.65;27.15;;;;;;;5.17;100.00;100114.75;10523086;28;20589;-69
2024/03/09 07:46:51;;;;;;;48.15;24.70;;;;;;;5.32;100.00;100110.22;10542419;28;20066;-70
2024/03/09 07:51:51;;;;;;;23.55;19.60;;;;;;;5.48;100.00;100111.09;10507168;28;20055;-70
2024/03/09 07:56:52;;;;;;;34.63;23.35;;;;;;;6.11;100.00;100107.03;10499713;28;20083;-69
2024/03/09 08:01:53;;;;;;;28.20;19.90;;;;;;;6.55;100.00;100114.16;10521879;28;20055;-68
2024/03/09 08:06:54;;;;;;;20.20;16.20;;;;;;;6.82;100.00;100109.84;10540634;28;20101;-70
2024/03/09 08:11:54;;;;;;;37.80;21.33;;;;;;;6.45;100.00;100127.09;10540252;28;20429;-67
2024/03/09 08:16:55;;;;;;;36.95;19.90;;;;;;;6.99;100.00;100113.97;10541128;28;20064;-71
2024/03/09 08:21:55;;;;;;;21.98;17.67;;;;;;;8.35;100.00;100108.16;10435855;28;20656;-69
2024/03/09 08:26:56;;;;;;;33.53;22.05;;;;;;;9.37;100.00;100106.25;10540357;28;20036;-69
2024/03/09 08:31:57;;;;;;;34.25;19.67;;;;;;;10.35;100.00;100098.09;10520467;28;20119;-68
2024/03/09 08:36:59;;;;;;;26.73;17.15;;;;;;;10.58;94.26;100087.56;10539949;28;20127;-69
2024/03/09 08:42:01;;;;;;;20.73;14.95;;;;;;;9.90;92.81;100087.22;10519704;28;20035;-69
2024/03/09 08:47:03;;;;;;;21.77;15.73;;;;;;;10.52;92.32;100082.19;10521525;28;20036;-69
2024/03/09 08:52:04;;;;;;;39.92;19.58;;;;;;;9.05;99.50;100081.72;10521403;28;20107;-68
2024/03/09 08:57:07;;;;;;;28.00;18.83;;;;;;;8.19;100.00;100058.09;10539745;28;20134;-68
2024/03/09 09:02:07;;;;;;;22.40;16.63;;;;;;;9.47;100.00;100050.72;10504193;28;20056;-69
2024/03/09 09:07:07;;;;;;;27.88;15.95;;;;;;;11.53;90.62;100054.09;10503885;28;20498;-69
2024/03/09 09:12:11;;;;;;;26.85;15.43;;;;;;;11.72;80.49;100044.91;10538418;28;20063;-70
2024/03/09 09:17:11;;;;;;;24.60;16.58;;;;;;;11.78;81.25;100068.41;10538585;28;20454;-70
2024/03/09 09:22:12;;;;;;;21.40;13.85;;;;;;;12.20;77.74;100074.00;10503024;28;20164;-69
2024/03/09 09:27:13;;;;;;;25.17;15.10;;;;;;;12.18;76.30;100062.53;10537897;28;20035;-69
2024/03/09 09:32:14;;;;;;;21.27;15.23;;;;;;;11.90;78.69;100056.81;10502934;28;20198;-70
2024/03/09 09:37:14;;;;;;;19.58;14.50;;;;;;;12.67;74.76;100049.75;10538264;28;20044;-69
2024/03/09 09:42:18;;;;;;;20.13;15.23;;;;;;;12.87;74.25;100044.00;10536292;28;20063;-68
2024/03/09 09:47:19;;;;;;;17.27;13.77;;;;;;;13.26;73.13;100042.50;10537160;28;20036;-68
2024/03/09 09:52:21;;;;;;;16.23;11.80;;;;;;;13.25;69.95;100035.44;10518816;28;20480;-70
2024/03/09 09:57:22;;;;;;;16.85;12.60;;;;;;;13.21;70.76;100025.25;10518797;28;20043;-69
2024/03/09 10:02:22;;;;;;;27.25;16.27;;;;;;;13.34;69.85;100018.78;10535980;28;20055;-69
2024/03/09 10:07:24;;;;;;;20.42;12.77;;;;;;;14.12;68.96;100010.06;10536103;28;20044;-70
2024/03/09 10:12:25;;;;;;;18.42;13.52;;;;;;;14.58;65.27;100021.00;10517484;28;20425;-67
2024/03/09 10:17:26;;;;;;;15.27;12.18;;;;;;;14.90;64.23;100013.13;10536301;28;20181;-67
2024/03/09 10:22:27;;;;;;;21.10;13.18;;;;;;;14.97;62.86;100002.88;10535901;28;20032;-68
2024/03/09 10:27:28;;;;;;;16.17;13.35;;;;;;;14.80;62.54;99999.31;10500066;28;20571;-68
2024/03/09 10:32:29;;;;;;;23.92;13.70;;;;;;;15.21;62.09;100002.69;10533735;28;20039;-66
2024/03/09 10:37:32;;;;;;;22.42;12.95;;;;;;;13.45;66.06;99983.38;10534801;28;20101;-68
2024/03/09 10:42:33;;;;;;;16.45;11.48;;;;;;;13.32;68.37;99982.81;10499570;28;20039;-66
2024/03/09 10:47:34;;;;;;;14.27;12.55;;;;;;;12.68;72.65;99986.19;10516803;28;20028;-62
2024/03/09 10:52:36;;;;;;;19.45;10.90;;;;;;;12.56;77.03;99979.91;10516346;28;20422;-69
2024/03/09 10:57:36;;;;;;;14.15;12.65;;;;;;;11.92;80.07;99989.59;10499883;28;20089;-69
2024/03/09 11:02:38;;;;;;;18.48;13.23;;;;;;;11.87;83.96;99984.88;10497979;28;20123;-65
2024/03/09 11:07:38;;;;;;;16.52;12.52;;;;;;;11.66;87.37;99967.16;10456406;28;20143;-67
2024/03/09 11:12:39;;;;;;;13.82;11.57;;;;;;;11.62;87.18;99955.13;10515052;28;20111;-66
2024/03/09 11:17:44;;;;;;;21.20;15.43;;;;;;;11.76;90.24;99964.72;10499147;28;20039;-67
2024/03/09 11:22:45;;;;;;;17.35;13.73;;;;;;;12.86;81.87;99946.38;10533783;28;20085;-69
2024/03/09 11:27:45;;;;;;;19.02;13.95;;;;;;;14.93;68.94;99944.47;10533879;28;20123;-67
2024/03/09 11:32:46;;;;;;;21.60;12.70;;;;;;;15.69;64.59;99950.16;10498768;28;20036;-68
2024/03/09 11:37:49;;;;;;;18.08;12.55;;;;;;;16.20;60.42;99930.78;10533334;28;20054;-67
2024/03/09 11:43:04;;;;;;;17.08;14.52;;;;;;;14.79;64.62;99940.44;10514798;28;20119;-67
2024/03/09 11:48:05;;;;;;;22.13;12.82;;;;;;;15.39;62.48;99930.66;10533478;28;20031;-67
2024/03/09 11:53:10;;;;;;;16.58;12.57;;;;;;;15.83;62.64;99919.78;10532574;28;20063;-68
2024/03/09 11:58:10;;;;;;;15.57;11.75;;;;;;;16.41;59.97;99920.88;10533140;28;20048;-69
2024/03/09 12:03:13;;;;;;;16.52;12.88;;;;;;;16.02;61.94;99899.22;10514854;28;20062;-68
2024/03/09 12:08:13;;;;;;;18.90;13.35;;;;;;;16.66;57.58;99910.16;10515980;28;20047;-69
2024/03/09 12:13:14;;;;;;;15.55;12.43;;;;;;;16.86;58.16;99897.75;10514691;28;20059;-68
2024/03/09 12:18:14;;;;;;;13.88;11.82;;;;;;;16.24;57.16;99893.66;10539558;28;20082;-67
2024/03/09 12:23:15;;;;;;;16.23;11.10;;;;;;;16.60;57.44;99867.47;10541255;28;20036;-68
2024/03/09 12:28:16;;;;;;;11.40;10.23;;;;;;;16.45;55.82;99862.72;10522015;28;20051;-68
2024/03/09 12:33:17;;;;;;;14.35;11.07;;;;;;;16.16;57.15;99845.00;10543446;28;20067;-69
2024/03/09 12:38:21;;;;;;;20.70;10.77;;;;;;;16.50;57.32;99854.56;10539623;28;20119;-68
2024/03/09 12:43:23;;;;;;;23.02;12.60;;;;;;;16.19;58.05;99839.00;10505908;28;20043;-67
2024/03/09 12:48:25;;;;;;;13.85;12.18;;;;;;;16.04;57.89;99859.63;10540316;28;20024;-68
2024/03/09 12:53:25;;;;;;;14.52;12.73;;;;;;;15.86;59.88;99835.44;10521915;28;20093;-68
2024/03/09 12:58:26;;;;;;;11.48;8.68;;;;;;;14.91;59.94;99823.97;10539320;28;20089;-67
2024/03/09 13:03:26;;;;;;;16.85;12.15;;;;;;;14.59;64.50;99818.34;10520570;28;20150;-68
2024/03/09 13:08:27;;;;;;;14.95;11.10;;;;;;;14.94;62.86;99823.47;10535275;28;20583;-67
2024/03/09 13:13:27;;;;;;;18.63;10.85;;;;;;;15.08;61.24;99810.25;10538220;28;20162;-68
2024/03/09 13:18:28;;;;;;;11.77;10.57;;;;;;;14.08;65.19;99796.56;10518362;28;20046;-69
2024/03/09 13:23:30;;;;;;;17.15;12.73;;;;;;;14.63;66.09;99803.13;10519869;28;20032;-68
2024/03/09 13:28:32;;;;;;;11.98;10.13;;;;;;;15.41;62.22;99808.47;10536136;28;20032;-70
2024/03/09 13:33:33;;;;;;;19.40;12.60;;;;;;;15.28;61.56;99785.97;10537040;28;20091;-69
2024/03/09 13:38:33;;;;;;;12.23;10.15;;;;;;;15.05;61.44;99786.22;10537270;28;20511;-67
2024/03/09 13:43:34;;;;;;;13.77;9.98;;;;;;;14.52;63.60;99799.44;10501574;28;20051;-67
2024/03/09 13:48:40;;;;;;;14.18;10.52;;;;;;;14.34;65.23;99788.78;10518578;28;20093;-69
2024/03/09 13:53:44;;;;;;;;;;;;;;;14.40;66.15;99787.78;10520157;28;20040;-68
2024/03/09 13:58:46;;;;;;;13.82;9.35;;;;;;;14.25;65.85;99793.81;10537315;28;19907;-68
2024/03/09 14:03:47;;;;;;;12.25;10.65;;;;;;;14.27;66.05;99774.53;10517787;28;20132;-69
2024/03/09 14:08:48;;;;;;;16.33;10.20;;;;;;;14.63;65.67;99773.97;10518165;28;20420;-67
2024/03/09 14:13:48;;;;;;;11.27;10.10;;;;;;;14.56;64.30;99775.25;10517674;28;20079;-69
2024/03/09 14:18:52;;;;;;;16.40;11.70;;;;;;;14.00;67.61;99769.75;10517162;28;20387;-69
2024/03/09 14:23:55;;;;;;;13.85;10.10;;;;;;;13.81;68.62;99776.50;10535418;28;20368;-64
2024/03/09 14:28:58;;;;;;;15.07;10.13;;;;;;;13.57;70.53;99775.81;10535010;28;20040;-69
2024/03/09 14:34:00;;;;;;;14.13;10.50;;;;;;;13.94;70.22;99770.72;10516952;28;20380;-68
2024/03/09 14:39:00;;;;;;;12.48;10.95;;;;;;;14.49;69.25;99755.53;10533585;28;20035;-68
2024/03/09 14:44:05;;;;;;;10.50;9.27;;;;;;;14.83;62.54;99780.78;10516142;28;20099;-69
2024/03/09 14:49:07;;;;;;;11.88;10.55;;;;;;;14.80;62.39;99793.00;10534371;28;20391;-67
2024/03/09 14:54:08;;;;;;;11.13;9.68;;;;;;;14.60;62.66;99768.22;10534134;28;20065;-68
2024/03/09 14:59:10;;;;;;;14.27;9.55;;;;;;;14.31;63.21;99775.69;10516175;28;20044;-71
2024/03/09 15:04:14;;;;;;;10.23;9.15;;;;;;;14.14;63.29;99753.91;10515511;28;20400;-67
2024/03/09 15:09:23;;;;;;;11.25;9.50;;;;;;;13.70;65.69;99760.00;10534231;28;20072;-67
2024/03/09 15:14:26;;;;;;;11.68;9.55;;;;;;;13.33;69.45;99748.72;10533711;28;20123;-69
2024/03/09 15:19:27;;;;;;;20.83;9.55;;;;;;;13.10;71.01;99751.53;10515460;28;20040;-68
2024/03/09 15:24:27;;;;;;;9.95;8.95;;;;;;;12.84;70.97;99751.03;10515637;28;20115;-69
2024/03/09 15:29:30;;;;;;;12.82;10.23;;;;;;;12.77;72.30;99734.88;10515313;28;20161;-67
2024/03/09 15:34:31;;;;;;;13.93;10.85;;;;;;;12.74;71.88;99726.38;10533400;28;20040;-71
2024/03/09 15:39:31;;;;;;;12.40;10.15;;;;;;;12.73;72.00;99744.56;10515684;28;20036;-69
2024/03/09 15:44:32;;;;;;;14.93;9.90;;;;;;;12.85;72.38;99714.63;10533558;28;20138;-69
2024/03/09 15:49:34;;;;;;;11.23;9.00;;;;;;;12.76;72.79;99735.94;10452452;28;20071;-68
2024/03/09 15:54:35;;;;;;;16.15;11.45;;;;;;;12.75;73.55;99730.72;10541987;28;20433;-68
2024/03/09 15:59:37;;;;;;;15.45;11.55;;;;;;;12.68;74.40;99724.63;10523923;28;20057;-68
2024/03/09 16:04:37;;;;;;;13.07;11.30;;;;;;;12.55;76.45;99706.69;10540910;28;20551;-68
2024/03/09 16:09:38;;;;;;;16.83;12.13;;;;;;;12.50;82.02;99712.00;10523957;28;20115;-67
2024/03/09 16:14:38;;;;;;;23.60;13.65;;;;;;;12.46;85.18;99721.72;10522684;28;20098;-68
2024/03/09 16:19:39;;;;;;;21.10;12.20;;;;;;;12.43;86.89;99730.31;10540873;28;20086;-67
2024/03/09 16:24:39;;;;;;;21.23;14.10;;;;;;;12.33;88.74;99729.03;10540658;28;20039;-69
2024/03/09 16:29:41;;;;;;;13.85;11.90;;;;;;;12.13;91.13;99717.72;10522051;28;20130;-67
2024/03/09 16:34:41;;;;;;;21.25;13.68;;;;;;;11.88;94.29;99720.66;10540794;28;20039;-67
2024/03/09 16:39:42;;;;;;;17.42;13.55;;;;;;;11.78;96.12;99715.81;10522067;28;20434;-67
2024/03/09 16:44:43;;;;;;;18.10;13.32;;;;;;;11.83;97.14;99734.88;10539311;28;20038;-66
2024/03/09 16:49:43;;;;;;;20.60;15.80;;;;;;;11.79;98.25;99736.44;10539591;28;20078;-67
2024/03/09 16:54:45;;;;;;;23.38;15.85;;;;;;;11.67;99.66;99726.63;10539921;28;20060;-69
2024/03/09 16:59:46;;;;;;;19.40;15.20;;;;;;;11.52;100.00;99727.91;10538896;28;20060;-68
2024/03/09 17:04:48;;;;;;;23.48;14.93;;;;;;;11.44;100.00;99740.97;10519990;28;20115;-67
2024/03/09 17:09:50;;;;;;;23.95;15.23;;;;;;;11.36;100.00;99728.56;10538574;28;20067;-68
2024/03/09 17:14:51;;;;;;;22.20;15.13;;;;;;;11.30;100.00;99740.34;10538320;28;20055;-68
2024/03/09 17:19:51;;;;;;;22.48;16.45;;;;;;;11.30;100.00;99738.44;10538572;28;20032;-67
2024/03/09 17:24:52;;;;;;;28.17;15.95;;;;;;;11.36;100.00;99744.84;10503273;28;20056;-67
2024/03/09 17:29:52;;;;;;;21.85;15.50;;;;;;;11.37;100.00;99751.91;10537810;28;20052;-67
2024/03/09 17:34:53;;;;;;;18.00;13.40;;;;;;;11.35;100.00;99757.53;10537683;28;20484;-68
2024/03/09 17:39:54;;;;;;;18.02;14.65;;;;;;;11.33;100.00;99758.84;10519608;28;20177;-69
2024/03/09 17:44:54;;;;;;;19.33;16.13;;;;;;;11.17;100.00;99758.44;10537209;28;20063;-67
2024/03/09 17:49:55;;;;;;;20.23;14.43;;;;;;;11.07;100.00;99763.59;10537734;28;20621;-69
2024/03/09 17:54:56;;;;;;;26.52;15.35;;;;;;;11.11;100.00;99766.66;10519209;28;20063;-67
2024/03/09 17:59:56;;;;;;;21.42;12.65;;;;;;;11.07;100.00;99763.59;10518990;28;20088;-69
2024/03/09 18:04:56;;;;;;;19.17;13.70;;;;;;;11.07;100.00;99771.72;10518960;28;20049;-69
2024/03/09 18:09:58;;;;;;;17.08;13.98;;;;;;;11.00;100.00;99768.22;10536770;28;20036;-67
2024/03/09 18:15:09;;;;;;;18.05;12.45;;;;;;;10.89;100.00;99764.41;10517215;28;20058;-69
2024/03/09 18:20:10;;;;;;;26.33;14.77;;;;;;;10.87;100.00;99773.81;10502884;28;20071;-70
2024/03/09 18:25:11;;;;;;;22.55;13.15;;;;;;;10.77;100.00;99771.66;10517606;28;20028;-68
2024/03/09 18:30:16;;;;;;;21.00;15.63;;;;;;;10.66;100.00;99772.41;10536108;28;20531;-68
2024/03/09 18:35:21;;;;;;;17.48;15.25;;;;;;;10.66;100.00;99754.28;10535984;28;20110;-67
2024/03/09 18:40:22;;;;;;;18.10;14.00;;;;;;;10.64;100.00;99756.38;10501425;28;20126;-68
2024/03/09 18:45:28;;;;;;;20.48;14.00;;;;;;;10.64;100.00;99742.03;10516179;28;20199;-69
2024/03/09 18:50:29;;;;;;;28.20;16.07;;;;;;;10.70;100.00;99741.13;10534798;28;20040;-68
2024/03/09 18:55:29;;;;;;;16.17;13.25;;;;;;;10.71;100.00;99734.63;10534416;28;20047;-67
2024/03/09 19:00:30;;;;;;;18.23;13.95;;;;;;;10.67;100.00;99719.91;10516180;28;20097;-69
2024/03/09 19:05:32;;;;;;;19.88;13.85;;;;;;;10.64;100.00;99731.19;10535385;28;20541;-69
2024/03/09 19:10:34;;;;;;;16.98;12.82;;;;;;;10.58;100.00;99732.91;10516507;28;20032;-70
2024/03/09 19:15:34;;;;;;;18.10;12.40;;;;;;;10.54;100.00;99730.91;10533475;28;20487;-67
2024/03/09 19:20:38;;;;;;;19.40;14.23;;;;;;;10.51;100.00;99732.19;10515736;28;20032;-68
2024/03/09 19:25:38;;;;;;;18.15;13.25;;;;;;;10.51;100.00;99713.22;10516254;28;20057;-68
2024/03/09 19:30:39;;;;;;;18.35;13.90;;;;;;;10.47;100.00;99715.56;10534733;28;20089;-67
2024/03/09 19:35:39;;;;;;;15.30;12.02;;;;;;;10.45;100.00;99725.78;10534460;28;20110;-72
2024/03/09 19:40:43;;;;;;;21.45;15.02;;;;;;;10.45;100.00;99706.84;10516454;28;20063;-68
2024/03/09 19:45:43;;;;;;;18.67;14.40;;;;;;;10.39;100.00;99713.16;10533815;28;20073;-69
2024/03/09 19:50:45;;;;;;;17.42;13.70;;;;;;;10.33;100.00;99713.22;10516153;28;20045;-70
2024/03/09 19:55:45;;;;;;;29.60;16.42;;;;;;;10.27;100.00;99712.22;10498533;28;20052;-69
2024/03/09 20:00:46;;;;;;;18.00;13.38;;;;;;;10.17;100.00;99709.19;10515621;28;20119;-67
2024/03/09 20:05:49;;;;;;;29.23;16.60;;;;;;;10.14;100.00;99731.28;10533604;28;20521;-69
2024/03/09 20:10:49;;;;;;;17.83;15.75;;;;;;;10.09;100.00;99715.72;10533496;28;20042;-69
2024/03/09 20:15:50;;;;;;;19.42;15.40;;;;;;;10.00;100.00;99708.97;10514983;28;20088;-67
2024/03/09 20:20:50;;;;;;;19.92;14.18;;;;;;;9.95;100.00;99730.41;10532681;28;20062;-68
2024/03/09 20:25:52;;;;;;;22.98;16.80;;;;;;;9.86;100.00;99726.34;10514387;28;20071;-69
2024/03/09 20:30:54;;;;;;;18.20;15.10;;;;;;;9.76;100.00;99729.53;10533786;28;20031;-70
2024/03/09 20:35:54;;;;;;;17.02;12.35;;;;;;;9.63;100.00;99725.06;10499912;28;20036;-68
2024/03/09 20:40:55;;;;;;;19.40;15.60;;;;;;;9.61;100.00;99731.78;10506468;28;20028;-71
2024/03/09 20:45:57;;;;;;;21.73;15.20;;;;;;;9.66;100.00;99729.22;10521900;28;20428;-70
2024/03/09 20:50:58;;;;;;;24.27;16.00;;;;;;;9.75;100.00;99726.00;10521737;28;20441;-69
2024/03/09 20:55:59;;;;;;;23.70;15.15;;;;;;;9.70;100.00;99723.16;10539932;28;20039;-70
2024/03/09 21:00:59;;;;;;;20.98;16.52;;;;;;;9.67;100.00;99717.38;10539634;28;20083;-68
2024/03/09 21:06:04;;;;;;;17.25;13.07;;;;;;;9.58;100.00;99721.41;10521364;28;20114;-69
2024/03/09 21:11:07;;;;;;;23.42;15.95;;;;;;;9.54;100.00;99723.72;10539210;28;20032;-69
2024/03/09 21:16:09;;;;;;;31.88;16.60;;;;;;;9.56;100.00;99721.59;10503942;28;20040;-68
2024/03/09 21:21:10;;;;;;;16.95;14.48;;;;;;;9.64;100.00;99715.94;10538023;28;20032;-70
2024/03/09 21:26:10;;;;;;;23.50;16.25;;;;;;;9.66;100.00;99729.22;10537745;28;20071;-68
2024/03/09 21:31:11;;;;;;;25.45;16.08;;;;;;;9.62;100.00;99722.59;10537389;28;20036;-68
2024/03/09 21:36:11;;;;;;;22.05;14.38;;;;;;;9.48;100.00;99738.94;10519891;28;20028;-68
2024/03/09 21:41:12;;;;;;;18.13;14.93;;;;;;;9.37;100.00;99726.09;10520130;28;20060;-69
2024/03/09 21:46:15;;;;;;;27.95;14.57;;;;;;;9.24;100.00;99709.97;10537745;28;20119;-68
2024/03/09 21:51:16;;;;;;;27.17;17.88;;;;;;;9.24;100.00;99718.91;10520446;28;20415;-66
2024/03/09 21:56:16;;;;;;;21.77;16.17;;;;;;;9.26;100.00;99716.84;10539408;28;20127;-68
2024/03/09 22:01:17;;;;;;;13.57;10.65;;;;;;;9.30;100.00;99717.22;10539022;28;20083;-69
2024/03/09 22:06:17;;;;;;;15.73;13.15;;;;;;;9.37;100.00;99699.09;10519199;28;20067;-69
2024/03/09 22:11:18;;;;;;;25.08;16.80;;;;;;;9.38;100.00;99710.72;10518594;28;20028;-69
2024/03/09 22:16:18;;;;;;;19.65;14.68;;;;;;;9.37;100.00;99707.19;10535231;28;20032;-69
2024/03/09 22:21:19;;;;;;;22.73;16.20;;;;;;;9.35;100.00;99720.09;10535343;28;20070;-68
2024/03/09 22:26:19;;;;;;;23.75;15.63;;;;;;;9.31;100.00;99710.75;10535743;28;20043;-69
2024/03/09 22:31:19;;;;;;;19.80;15.45;;;;;;;9.24;100.00;99696.47;10535975;28;20361;-68
2024/03/09 22:36:20;;;;;;;20.08;14.00;;;;;;;9.26;100.00;99714.13;10517162;28;20055;-69
2024/03/09 22:41:21;;;;;;;16.00;13.20;;;;;;;9.22;100.00;99714.75;10516972;28;20487;-68